sensor_id;sensor_type;location;lat;lon;timestamp;P1;durP1;ratioP1;P2;durP2;ratioP2
28245;SDS011;15510;52.512;13.300;2023-09-19T00:01:47;2.45;;;1.23;;
28245;SDS011;15510;52.512;13.300;2023-09-19T00:04:13;3.90;;;1.20;;
28245;SDS011;15510;52.512;13.300;2023-09-19T00:06:47;2.28;;;1.13;;
28245;SDS011;15510;52.512;13.300;2023-09-19T00:09:12;2.30;;;1.10;;
28245;SDS011;15510;52.512;13.300;2023-09-19T00:11:40;3.35;;;1.30;;
28245;SDS011;15510;52.512;13.300;2023-09-19T00:14:06;3.45;;;1.10;;
28245;SDS011;15510;52.512;13.300;2023-09-19T00:16:34;1.40;;;1.20;;
28245;SDS011;15510;52.512;13.300;2023-09-19T00:19:00;4.82;;;1.73;;
28245;SDS011;15510;52.512;13.300;2023-09-19T00:21:31;4.10;;;1.25;;
28245;SDS011;15510;52.512;13.300;2023-09-19T00:23:57;1.98;;;1.15;;
28245;SDS011;15510;52.512;13.300;2023-09-19T00:26:23;2.72;;;1.13;;
28245;SDS011;15510;52.512;13.300;2023-09-19T00:28:52;2.85;;;1.08;;
28245;SDS011;15510;52.512;13.300;2023-09-19T00:31:18;3.10;;;1.30;;
28245;SDS011;15510;52.512;13.300;2023-09-19T00:33:43;5.30;;;1.20;;
28245;SDS011;15510;52.512;13.300;2023-09-19T00:36:09;3.47;;;1.10;;
28245;SDS011;15510;52.512;13.300;2023-09-19T00:38:35;1.23;;;0.75;;
28245;SDS011;15510;52.512;13.300;2023-09-19T00:41:01;2.35;;;1.17;;
28245;SDS011;15510;52.512;13.300;2023-09-19T00:43:27;7.38;;;1.67;;
28245;SDS011;15510;52.512;13.300;2023-09-19T00:45:56;1.23;;;0.93;;
28245;SDS011;15510;52.512;13.300;2023-09-19T00:48:22;3.70;;;1.15;;
28245;SDS011;15510;52.512;13.300;2023-09-19T00:50:53;2.40;;;1.13;;
28245;SDS011;15510;52.512;13.300;2023-09-19T00:53:20;3.08;;;1.40;;
28245;SDS011;15510;52.512;13.300;2023-09-19T00:55:49;1.80;;;1.02;;
28245;SDS011;15510;52.512;13.300;2023-09-19T00:58:16;2.80;;;1.13;;
28245;SDS011;15510;52.512;13.300;2023-09-19T01:00:44;4.20;;;1.20;;
28245;SDS011;15510;52.512;13.300;2023-09-19T01:03:10;2.95;;;1.27;;
28245;SDS011;15510;52.512;13.300;2023-09-19T01:05:39;2.88;;;1.00;;
28245;SDS011;15510;52.512;13.300;2023-09-19T01:08:05;3.58;;;1.50;;
28245;SDS011;15510;52.512;13.300;2023-09-19T01:10:32;1.55;;;1.20;;
28245;SDS011;15510;52.512;13.300;2023-09-19T01:15:45;3.15;;;1.10;;
28245;SDS011;15510;52.512;13.300;2023-09-19T01:19:04;2.17;;;1.15;;
28245;SDS011;15510;52.512;13.300;2023-09-19T01:24:46;1.48;;;0.90;;
28245;SDS011;15510;52.512;13.300;2023-09-19T01:27:39;4.35;;;1.10;;
28245;SDS011;15510;52.512;13.300;2023-09-19T01:30:32;3.10;;;1.25;;
28245;SDS011;15510;52.512;13.300;2023-09-19T01:33:01;4.13;;;1.00;;
28245;SDS011;15510;52.512;13.300;2023-09-19T01:35:30;2.92;;;1.42;;
28245;SDS011;15510;52.512;13.300;2023-09-19T01:37:55;1.70;;;0.90;;
28245;SDS011;15510;52.512;13.300;2023-09-19T01:40:21;1.88;;;1.23;;
28245;SDS011;15510;52.512;13.300;2023-09-19T01:42:49;3.85;;;1.30;;
28245;SDS011;15510;52.512;13.300;2023-09-19T01:48:32;1.65;;;0.93;;
28245;SDS011;15510;52.512;13.300;2023-09-19T01:51:07;1.92;;;1.35;;
28245;SDS011;15510;52.512;13.300;2023-09-19T01:53:41;4.28;;;1.13;;
28245;SDS011;15510;52.512;13.300;2023-09-19T01:57:14;3.05;;;1.15;;
28245;SDS011;15510;52.512;13.300;2023-09-19T01:59:31;2.97;;;1.40;;
28245;SDS011;15510;52.512;13.300;2023-09-19T02:02:02;1.25;;;0.98;;
28245;SDS011;15510;52.512;13.300;2023-09-19T02:04:32;2.67;;;1.02;;
28245;SDS011;15510;52.512;13.300;2023-09-19T02:07:00;1.08;;;0.98;;
28245;SDS011;15510;52.512;13.300;2023-09-19T02:09:26;2.35;;;1.27;;
28245;SDS011;15510;52.512;13.300;2023-09-19T02:11:52;1.23;;;1.13;;
28245;SDS011;15510;52.512;13.300;2023-09-19T02:14:18;2.13;;;1.27;;
28245;SDS011;15510;52.512;13.300;2023-09-19T02:16:45;3.67;;;1.10;;
28245;SDS011;15510;52.512;13.300;2023-09-19T02:19:10;2.03;;;1.20;;
28245;SDS011;15510;52.512;13.300;2023-09-19T02:21:36;1.45;;;1.15;;
28245;SDS011;15510;52.512;13.300;2023-09-19T02:24:05;4.30;;;1.00;;
28245;SDS011;15510;52.512;13.300;2023-09-19T02:26:33;4.10;;;1.10;;
28245;SDS011;15510;52.512;13.300;2023-09-19T02:29:02;2.17;;;1.00;;
28245;SDS011;15510;52.512;13.300;2023-09-19T02:31:30;2.42;;;1.10;;
28245;SDS011;15510;52.512;13.300;2023-09-19T02:33:56;1.08;;;0.98;;
28245;SDS011;15510;52.512;13.300;2023-09-19T02:36:21;3.00;;;1.20;;
28245;SDS011;15510;52.512;13.300;2023-09-19T02:38:48;6.55;;;1.10;;
28245;SDS011;15510;52.512;13.300;2023-09-19T02:41:15;3.35;;;1.23;;
28245;SDS011;15510;52.512;13.300;2023-09-19T02:43:40;2.35;;;1.10;;
28245;SDS011;15510;52.512;13.300;2023-09-19T02:46:08;2.88;;;1.00;;
28245;SDS011;15510;52.512;13.300;2023-09-19T02:48:36;1.60;;;1.23;;
28245;SDS011;15510;52.512;13.300;2023-09-19T02:51:02;2.85;;;1.20;;
28245;SDS011;15510;52.512;13.300;2023-09-19T02:53:28;2.80;;;1.30;;
28245;SDS011;15510;52.512;13.300;2023-09-19T02:55:58;2.20;;;1.20;;
28245;SDS011;15510;52.512;13.300;2023-09-19T02:58:24;4.28;;;1.30;;
28245;SDS011;15510;52.512;13.300;2023-09-19T03:00:50;2.80;;;1.25;;
28245;SDS011;15510;52.512;13.300;2023-09-19T03:03:17;2.88;;;1.00;;
28245;SDS011;15510;52.512;13.300;2023-09-19T03:05:43;2.28;;;1.02;;
28245;SDS011;15510;52.512;13.300;2023-09-19T03:08:15;1.30;;;0.95;;
28245;SDS011;15510;52.512;13.300;2023-09-19T03:10:42;8.05;;;1.35;;
28245;SDS011;15510;52.512;13.300;2023-09-19T03:13:11;1.38;;;0.85;;
28245;SDS011;15510;52.512;13.300;2023-09-19T03:15:40;2.42;;;0.80;;
28245;SDS011;15510;52.512;13.300;2023-09-19T03:18:10;5.60;;;1.00;;
28245;SDS011;15510;52.512;13.300;2023-09-19T03:20:36;3.08;;;1.15;;
28245;SDS011;15510;52.512;13.300;2023-09-19T03:23:02;3.85;;;0.98;;
28245;SDS011;15510;52.512;13.300;2023-09-19T03:25:34;2.97;;;1.10;;
28245;SDS011;15510;52.512;13.300;2023-09-19T03:28:01;1.20;;;0.57;;
28245;SDS011;15510;52.512;13.300;2023-09-19T03:30:31;1.10;;;0.75;;
28245;SDS011;15510;52.512;13.300;2023-09-19T03:32:59;3.75;;;0.90;;
28245;SDS011;15510;52.512;13.300;2023-09-19T03:35:26;2.28;;;0.70;;
28245;SDS011;15510;52.512;13.300;2023-09-19T03:37:52;1.80;;;0.73;;
28245;SDS011;15510;52.512;13.300;2023-09-19T03:40:18;1.95;;;0.70;;
28245;SDS011;15510;52.512;13.300;2023-09-19T03:42:46;1.35;;;0.93;;
28245;SDS011;15510;52.512;13.300;2023-09-19T03:45:13;2.13;;;0.60;;
28245;SDS011;15510;52.512;13.300;2023-09-19T03:47:47;2.58;;;0.70;;
28245;SDS011;15510;52.512;13.300;2023-09-19T03:50:15;5.22;;;0.90;;
28245;SDS011;15510;52.512;13.300;2023-09-19T03:52:45;2.08;;;0.80;;
28245;SDS011;15510;52.512;13.300;2023-09-19T03:55:11;1.15;;;0.75;;
28245;SDS011;15510;52.512;13.300;2023-09-19T03:57:40;1.42;;;0.90;;
28245;SDS011;15510;52.512;13.300;2023-09-19T04:00:07;1.60;;;0.80;;
28245;SDS011;15510;52.512;13.300;2023-09-19T04:02:38;0.90;;;0.60;;
28245;SDS011;15510;52.512;13.300;2023-09-19T04:05:05;1.08;;;0.82;;
28245;SDS011;15510;52.512;13.300;2023-09-19T04:07:31;1.75;;;0.45;;
28245;SDS011;15510;52.512;13.300;2023-09-19T04:09:57;1.98;;;0.80;;
28245;SDS011;15510;52.512;13.300;2023-09-19T04:12:22;2.08;;;0.80;;
28245;SDS011;15510;52.512;13.300;2023-09-19T04:14:48;1.45;;;0.70;;
28245;SDS011;15510;52.512;13.300;2023-09-19T04:17:15;2.90;;;0.82;;
28245;SDS011;15510;52.512;13.300;2023-09-19T04:19:41;1.08;;;0.70;;
28245;SDS011;15510;52.512;13.300;2023-09-19T04:22:07;2.03;;;0.70;;
28245;SDS011;15510;52.512;13.300;2023-09-19T04:24:34;3.55;;;1.10;;
28245;SDS011;15510;52.512;13.300;2023-09-19T04:27:00;1.42;;;0.65;;
28245;SDS011;15510;52.512;13.300;2023-09-19T04:29:26;1.30;;;0.80;;
28245;SDS011;15510;52.512;13.300;2023-09-19T04:31:55;0.98;;;0.70;;
28245;SDS011;15510;52.512;13.300;2023-09-19T04:34:24;1.48;;;0.65;;
28245;SDS011;15510;52.512;13.300;2023-09-19T04:36:50;0.70;;;0.70;;
28245;SDS011;15510;52.512;13.300;2023-09-19T04:39:16;2.20;;;0.85;;
28245;SDS011;15510;52.512;13.300;2023-09-19T04:41:42;1.77;;;0.90;;
28245;SDS011;15510;52.512;13.300;2023-09-19T04:44:10;1.85;;;1.13;;
28245;SDS011;15510;52.512;13.300;2023-09-19T04:46:35;3.45;;;0.70;;
28245;SDS011;15510;52.512;13.300;2023-09-19T04:49:01;3.42;;;0.90;;
28245;SDS011;15510;52.512;13.300;2023-09-19T04:51:33;1.65;;;0.70;;
28245;SDS011;15510;52.512;13.300;2023-09-19T04:54:01;1.75;;;1.15;;
28245;SDS011;15510;52.512;13.300;2023-09-19T04:56:28;3.40;;;0.90;;
28245;SDS011;15510;52.512;13.300;2023-09-19T04:58:54;2.38;;;0.82;;
28245;SDS011;15510;52.512;13.300;2023-09-19T05:01:19;1.25;;;1.15;;
28245;SDS011;15510;52.512;13.300;2023-09-19T05:03:48;2.08;;;1.00;;
28245;SDS011;15510;52.512;13.300;2023-09-19T05:06:20;2.67;;;1.30;;
28245;SDS011;15510;52.512;13.300;2023-09-19T05:08:49;1.35;;;0.65;;
28245;SDS011;15510;52.512;13.300;2023-09-19T05:11:17;3.05;;;0.70;;
28245;SDS011;15510;52.512;13.300;2023-09-19T05:13:43;0.82;;;0.82;;
28245;SDS011;15510;52.512;13.300;2023-09-19T05:16:09;2.15;;;1.38;;
28245;SDS011;15510;52.512;13.300;2023-09-19T05:18:35;2.05;;;0.70;;
28245;SDS011;15510;52.512;13.300;2023-09-19T05:21:04;1.38;;;0.77;;
28245;SDS011;15510;52.512;13.300;2023-09-19T05:23:30;1.17;;;0.60;;
28245;SDS011;15510;52.512;13.300;2023-09-19T05:25:56;1.80;;;0.88;;
28245;SDS011;15510;52.512;13.300;2023-09-19T05:28:25;1.33;;;0.68;;
28245;SDS011;15510;52.512;13.300;2023-09-19T05:30:52;4.38;;;1.35;;
28245;SDS011;15510;52.512;13.300;2023-09-19T05:33:19;3.30;;;1.05;;
28245;SDS011;15510;52.512;13.300;2023-09-19T05:35:45;1.20;;;0.73;;
28245;SDS011;15510;52.512;13.300;2023-09-19T05:38:13;4.28;;;1.65;;
28245;SDS011;15510;52.512;13.300;2023-09-19T05:40:40;1.80;;;1.10;;
28245;SDS011;15510;52.512;13.300;2023-09-19T05:43:07;1.48;;;1.10;;
28245;SDS011;15510;52.512;13.300;2023-09-19T05:45:36;3.15;;;1.13;;
28245;SDS011;15510;52.512;13.300;2023-09-19T05:48:12;3.13;;;0.90;;
28245;SDS011;15510;52.512;13.300;2023-09-19T05:50:40;4.32;;;0.90;;
28245;SDS011;15510;52.512;13.300;2023-09-19T05:53:07;4.13;;;0.77;;
28245;SDS011;15510;52.512;13.300;2023-09-19T05:55:33;2.50;;;0.80;;
28245;SDS011;15510;52.512;13.300;2023-09-19T05:57:59;1.95;;;1.23;;
28245;SDS011;15510;52.512;13.300;2023-09-19T06:00:25;3.42;;;1.30;;
28245;SDS011;15510;52.512;13.300;2023-09-19T06:02:52;2.60;;;1.67;;
28245;SDS011;15510;52.512;13.300;2023-09-19T06:05:19;1.23;;;0.70;;
28245;SDS011;15510;52.512;13.300;2023-09-19T06:07:46;1.20;;;0.80;;
28245;SDS011;15510;52.512;13.300;2023-09-19T06:10:12;4.65;;;1.95;;
28245;SDS011;15510;52.512;13.300;2023-09-19T06:12:40;1.42;;;1.17;;
28245;SDS011;15510;52.512;13.300;2023-09-19T06:15:09;1.40;;;1.30;;
28245;SDS011;15510;52.512;13.300;2023-09-19T06:17:44;0.82;;;0.60;;
28245;SDS011;15510;52.512;13.300;2023-09-19T06:20:12;1.33;;;0.93;;
28245;SDS011;15510;52.512;13.300;2023-09-19T06:22:44;1.88;;;1.00;;
28245;SDS011;15510;52.512;13.300;2023-09-19T06:25:13;2.70;;;1.23;;
28245;SDS011;15510;52.512;13.300;2023-09-19T06:27:48;3.67;;;1.67;;
28245;SDS011;15510;52.512;13.300;2023-09-19T06:30:17;1.67;;;1.25;;
28245;SDS011;15510;52.512;13.300;2023-09-19T06:32:43;1.98;;;1.10;;
28245;SDS011;15510;52.512;13.300;2023-09-19T06:35:13;1.30;;;0.93;;
28245;SDS011;15510;52.512;13.300;2023-09-19T06:37:40;1.73;;;1.20;;
28245;SDS011;15510;52.512;13.300;2023-09-19T06:45:10;4.10;;;1.33;;
28245;SDS011;15510;52.512;13.300;2023-09-19T06:47:38;2.65;;;1.10;;
28245;SDS011;15510;52.512;13.300;2023-09-19T06:50:05;4.78;;;1.27;;
28245;SDS011;15510;52.512;13.300;2023-09-19T06:52:34;1.73;;;1.10;;
28245;SDS011;15510;52.512;13.300;2023-09-19T06:55:00;1.98;;;1.05;;
28245;SDS011;15510;52.512;13.300;2023-09-19T06:57:28;3.35;;;0.90;;
28245;SDS011;15510;52.512;13.300;2023-09-19T06:59:55;1.77;;;1.20;;
28245;SDS011;15510;52.512;13.300;2023-09-19T07:02:21;0.95;;;0.65;;
28245;SDS011;15510;52.512;13.300;2023-09-19T07:04:49;1.60;;;0.95;;
28245;SDS011;15510;52.512;13.300;2023-09-19T07:07:15;1.85;;;1.27;;
28245;SDS011;15510;52.512;13.300;2023-09-19T07:09:41;3.67;;;1.20;;
28245;SDS011;15510;52.512;13.300;2023-09-19T07:12:07;3.13;;;1.02;;
28245;SDS011;15510;52.512;13.300;2023-09-19T07:14:33;1.92;;;1.08;;
28245;SDS011;15510;52.512;13.300;2023-09-19T07:16:59;4.75;;;1.25;;
28245;SDS011;15510;52.512;13.300;2023-09-19T07:19:29;6.15;;;1.38;;
28245;SDS011;15510;52.512;13.300;2023-09-19T07:21:56;2.92;;;1.02;;
28245;SDS011;15510;52.512;13.300;2023-09-19T07:24:24;3.72;;;1.38;;
28245;SDS011;15510;52.512;13.300;2023-09-19T07:26:52;2.60;;;1.17;;
28245;SDS011;15510;52.512;13.300;2023-09-19T07:29:18;1.33;;;0.90;;
28245;SDS011;15510;52.512;13.300;2023-09-19T07:31:43;2.60;;;1.30;;
28245;SDS011;15510;52.512;13.300;2023-09-19T07:34:09;1.70;;;1.23;;
28245;SDS011;15510;52.512;13.300;2023-09-19T07:36:35;2.17;;;0.95;;
28245;SDS011;15510;52.512;13.300;2023-09-19T07:39:03;5.10;;;1.52;;
28245;SDS011;15510;52.512;13.300;2023-09-19T07:41:32;3.05;;;1.65;;
28245;SDS011;15510;52.512;13.300;2023-09-19T07:43:58;6.03;;;1.48;;
28245;SDS011;15510;52.512;13.300;2023-09-19T07:46:26;2.97;;;1.33;;
28245;SDS011;15510;52.512;13.300;2023-09-19T07:48:52;3.30;;;1.77;;
28245;SDS011;15510;52.512;13.300;2023-09-19T07:51:18;4.03;;;1.70;;
28245;SDS011;15510;52.512;13.300;2023-09-19T07:53:44;2.42;;;1.33;;
28245;SDS011;15510;52.512;13.300;2023-09-19T07:56:09;3.55;;;1.70;;
28245;SDS011;15510;52.512;13.300;2023-09-19T07:58:36;8.80;;;1.83;;
28245;SDS011;15510;52.512;13.300;2023-09-19T08:01:06;2.80;;;1.38;;
28245;SDS011;15510;52.512;13.300;2023-09-19T08:03:35;3.92;;;1.70;;
28245;SDS011;15510;52.512;13.300;2023-09-19T08:06:05;2.72;;;1.27;;
28245;SDS011;15510;52.512;13.300;2023-09-19T08:08:34;3.40;;;1.20;;
28245;SDS011;15510;52.512;13.300;2023-09-19T08:11:04;4.82;;;1.13;;
28245;SDS011;15510;52.512;13.300;2023-09-19T08:13:40;2.17;;;1.45;;
28245;SDS011;15510;52.512;13.300;2023-09-19T08:16:09;3.25;;;1.13;;
28245;SDS011;15510;52.512;13.300;2023-09-19T08:18:36;4.90;;;1.33;;
28245;SDS011;15510;52.512;13.300;2023-09-19T08:21:05;1.73;;;1.25;;
28245;SDS011;15510;52.512;13.300;2023-09-19T08:23:35;4.15;;;1.52;;
28245;SDS011;15510;52.512;13.300;2023-09-19T08:26:07;7.03;;;1.77;;
28245;SDS011;15510;52.512;13.300;2023-09-19T08:28:33;2.30;;;1.33;;
28245;SDS011;15510;52.512;13.300;2023-09-19T08:31:05;4.78;;;1.40;;
28245;SDS011;15510;52.512;13.300;2023-09-19T08:33:32;2.97;;;1.35;;
28245;SDS011;15510;52.512;13.300;2023-09-19T08:35:59;3.70;;;1.50;;
28245;SDS011;15510;52.512;13.300;2023-09-19T08:38:25;2.30;;;1.30;;
28245;SDS011;15510;52.512;13.300;2023-09-19T08:40:58;3.50;;;1.40;;
28245;SDS011;15510;52.512;13.300;2023-09-19T08:43:25;3.22;;;1.52;;
28245;SDS011;15510;52.512;13.300;2023-09-19T08:46:24;3.03;;;1.60;;
28245;SDS011;15510;52.512;13.300;2023-09-19T08:49:03;7.05;;;2.00;;
28245;SDS011;15510;52.512;13.300;2023-09-19T08:51:33;4.28;;;1.58;;
28245;SDS011;15510;52.512;13.300;2023-09-19T08:54:25;2.13;;;1.90;;
28245;SDS011;15510;52.512;13.300;2023-09-19T08:56:59;6.68;;;2.03;;
28245;SDS011;15510;52.512;13.300;2023-09-19T08:59:33;4.07;;;1.58;;
28245;SDS011;15510;52.512;13.300;2023-09-19T09:02:00;6.80;;;1.65;;
28245;SDS011;15510;52.512;13.300;2023-09-19T09:04:29;2.13;;;1.60;;
28245;SDS011;15510;52.512;13.300;2023-09-19T09:06:58;2.75;;;1.60;;
28245;SDS011;15510;52.512;13.300;2023-09-19T09:09:25;3.33;;;1.70;;
28245;SDS011;15510;52.512;13.300;2023-09-19T09:11:53;3.33;;;1.45;;
28245;SDS011;15510;52.512;13.300;2023-09-19T09:14:28;5.05;;;1.77;;
28245;SDS011;15510;52.512;13.300;2023-09-19T09:16:55;6.07;;;1.92;;
28245;SDS011;15510;52.512;13.300;2023-09-19T09:19:24;9.38;;;2.47;;
28245;SDS011;15510;52.512;13.300;2023-09-19T09:21:52;4.32;;;1.52;;
28245;SDS011;15510;52.512;13.300;2023-09-19T09:24:27;5.20;;;2.13;;
28245;SDS011;15510;52.512;13.300;2023-09-19T09:26:59;4.10;;;1.80;;
28245;SDS011;15510;52.512;13.300;2023-09-19T09:29:41;4.72;;;2.03;;
28245;SDS011;15510;52.512;13.300;2023-09-19T09:32:30;4.90;;;1.63;;
28245;SDS011;15510;52.512;13.300;2023-09-19T09:35:01;5.85;;;1.88;;
28245;SDS011;15510;52.512;13.300;2023-09-19T09:37:34;5.35;;;1.70;;
28245;SDS011;15510;52.512;13.300;2023-09-19T09:40:03;3.45;;;1.80;;
28245;SDS011;15510;52.512;13.300;2023-09-19T09:42:39;5.90;;;1.55;;
28245;SDS011;15510;52.512;13.300;2023-09-19T09:45:12;5.30;;;1.60;;
28245;SDS011;15510;52.512;13.300;2023-09-19T09:48:03;4.68;;;1.90;;
28245;SDS011;15510;52.512;13.300;2023-09-19T09:50:39;3.65;;;1.70;;
28245;SDS011;15510;52.512;13.300;2023-09-19T09:53:24;3.45;;;1.70;;
28245;SDS011;15510;52.512;13.300;2023-09-19T09:56:00;7.38;;;2.35;;
28245;SDS011;15510;52.512;13.300;2023-09-19T09:58:31;3.13;;;1.75;;
28245;SDS011;15510;52.512;13.300;2023-09-19T10:01:01;1.70;;;1.13;;
28245;SDS011;15510;52.512;13.300;2023-09-19T10:03:37;4.25;;;2.00;;
28245;SDS011;15510;52.512;13.300;2023-09-19T10:06:13;3.28;;;1.52;;
28245;SDS011;15510;52.512;13.300;2023-09-19T10:08:58;5.18;;;1.83;;
28245;SDS011;15510;52.512;13.300;2023-09-19T10:11:43;2.30;;;1.30;;
28245;SDS011;15510;52.512;13.300;2023-09-19T10:14:10;5.05;;;1.77;;
28245;SDS011;15510;52.512;13.300;2023-09-19T10:16:41;5.63;;;2.30;;
28245;SDS011;15510;52.512;13.300;2023-09-19T10:19:14;5.75;;;1.92;;
28245;SDS011;15510;52.512;13.300;2023-09-19T10:21:47;6.25;;;1.98;;
28245;SDS011;15510;52.512;13.300;2023-09-19T10:24:15;3.45;;;1.55;;
28245;SDS011;15510;52.512;13.300;2023-09-19T10:26:43;4.60;;;2.10;;
28245;SDS011;15510;52.512;13.300;2023-09-19T10:29:11;7.28;;;2.25;;
28245;SDS011;15510;52.512;13.300;2023-09-19T10:31:42;2.33;;;1.63;;
28245;SDS011;15510;52.512;13.300;2023-09-19T10:34:16;3.47;;;1.42;;
28245;SDS011;15510;52.512;13.300;2023-09-19T10:36:46;5.57;;;2.22;;
28245;SDS011;15510;52.512;13.300;2023-09-19T10:39:15;5.97;;;2.80;;
28245;SDS011;15510;52.512;13.300;2023-09-19T10:41:50;5.00;;;1.92;;
28245;SDS011;15510;52.512;13.300;2023-09-19T10:44:25;4.65;;;2.20;;
28245;SDS011;15510;52.512;13.300;2023-09-19T10:46:53;4.88;;;1.63;;
28245;SDS011;15510;52.512;13.300;2023-09-19T10:49:20;6.72;;;2.63;;
28245;SDS011;15510;52.512;13.300;2023-09-19T10:51:49;4.55;;;2.58;;
28245;SDS011;15510;52.512;13.300;2023-09-19T10:54:20;6.05;;;2.25;;
28245;SDS011;15510;52.512;13.300;2023-09-19T10:56:52;3.35;;;2.33;;
28245;SDS011;15510;52.512;13.300;2023-09-19T10:59:23;4.13;;;2.08;;
28245;SDS011;15510;52.512;13.300;2023-09-19T11:01:51;3.55;;;1.75;;
28245;SDS011;15510;52.512;13.300;2023-09-19T11:04:32;5.22;;;1.48;;
28245;SDS011;15510;52.512;13.300;2023-09-19T11:09:53;4.88;;;1.73;;
28245;SDS011;15510;52.512;13.300;2023-09-19T11:15:03;6.53;;;2.03;;
28245;SDS011;15510;52.512;13.300;2023-09-19T11:17:36;5.85;;;2.00;;
28245;SDS011;15510;52.512;13.300;2023-09-19T11:30:42;6.00;;;1.50;;
28245;SDS011;15510;52.512;13.300;2023-09-19T11:33:18;3.53;;;1.55;;
28245;SDS011;15510;52.512;13.300;2023-09-19T11:36:07;7.03;;;1.42;;
28245;SDS011;15510;52.512;13.300;2023-09-19T11:46:34;3.15;;;1.38;;
28245;SDS011;15510;52.512;13.300;2023-09-19T11:49:17;4.95;;;1.75;;
28245;SDS011;15510;52.512;13.300;2023-09-19T11:51:52;9.75;;;1.80;;
28245;SDS011;15510;52.512;13.300;2023-09-19T11:54:19;6.13;;;1.83;;
28245;SDS011;15510;52.512;13.300;2023-09-19T11:56:53;4.25;;;1.73;;
28245;SDS011;15510;52.512;13.300;2023-09-19T11:59:23;4.00;;;1.48;;
28245;SDS011;15510;52.512;13.300;2023-09-19T12:01:56;5.65;;;1.27;;
28245;SDS011;15510;52.512;13.300;2023-09-19T12:04:36;6.60;;;1.63;;
28245;SDS011;15510;52.512;13.300;2023-09-19T12:07:12;2.67;;;1.17;;
28245;SDS011;15510;52.512;13.300;2023-09-19T12:09:42;4.00;;;1.38;;
28245;SDS011;15510;52.512;13.300;2023-09-19T12:12:21;2.55;;;1.00;;
28245;SDS011;15510;52.512;13.300;2023-09-19T12:14:52;5.43;;;1.00;;
28245;SDS011;15510;52.512;13.300;2023-09-19T12:17:19;4.60;;;1.77;;
28245;SDS011;15510;52.512;13.300;2023-09-19T12:19:52;5.78;;;1.00;;
28245;SDS011;15510;52.512;13.300;2023-09-19T12:22:18;2.78;;;1.10;;
28245;SDS011;15510;52.512;13.300;2023-09-19T12:24:46;5.63;;;1.38;;
28245;SDS011;15510;52.512;13.300;2023-09-19T12:27:12;4.05;;;1.15;;
28245;SDS011;15510;52.512;13.300;2023-09-19T12:29:46;5.80;;;1.00;;
28245;SDS011;15510;52.512;13.300;2023-09-19T12:32:33;3.08;;;1.00;;
28245;SDS011;15510;52.512;13.300;2023-09-19T12:35:05;3.55;;;1.10;;
28245;SDS011;15510;52.512;13.300;2023-09-19T12:37:44;4.57;;;1.15;;
28245;SDS011;15510;52.512;13.300;2023-09-19T12:40:17;3.97;;;1.02;;
28245;SDS011;15510;52.512;13.300;2023-09-19T12:42:53;3.58;;;1.23;;
28245;SDS011;15510;52.512;13.300;2023-09-19T12:45:28;4.00;;;0.90;;
28245;SDS011;15510;52.512;13.300;2023-09-19T12:51:00;2.92;;;1.00;;
28245;SDS011;15510;52.512;13.300;2023-09-19T12:56:05;1.67;;;0.70;;
28245;SDS011;15510;52.512;13.300;2023-09-19T12:58:33;2.72;;;0.90;;
28245;SDS011;15510;52.512;13.300;2023-09-19T13:01:00;4.40;;;1.02;;
28245;SDS011;15510;52.512;13.300;2023-09-19T13:03:30;4.65;;;1.42;;
28245;SDS011;15510;52.512;13.300;2023-09-19T13:06:04;3.17;;;0.90;;
28245;SDS011;15510;52.512;13.300;2023-09-19T13:08:31;2.38;;;0.80;;
28245;SDS011;15510;52.512;13.300;2023-09-19T13:11:05;3.25;;;0.90;;
28245;SDS011;15510;52.512;13.300;2023-09-19T13:13:46;4.30;;;1.33;;
28245;SDS011;15510;52.512;13.300;2023-09-19T13:16:20;2.55;;;0.90;;
28245;SDS011;15510;52.512;13.300;2023-09-19T13:21:34;1.95;;;0.80;;
28245;SDS011;15510;52.512;13.300;2023-09-19T13:24:18;4.82;;;1.50;;
28245;SDS011;15510;52.512;13.300;2023-09-19T13:26:55;7.68;;;1.48;;
28245;SDS011;15510;52.512;13.300;2023-09-19T13:29:22;2.22;;;1.08;;
28245;SDS011;15510;52.512;13.300;2023-09-19T13:31:48;4.75;;;0.98;;
28245;SDS011;15510;52.512;13.300;2023-09-19T13:34:21;2.50;;;0.90;;
28245;SDS011;15510;52.512;13.300;2023-09-19T13:36:47;3.10;;;1.13;;
28245;SDS011;15510;52.512;13.300;2023-09-19T13:39:14;4.50;;;0.90;;
28245;SDS011;15510;52.512;13.300;2023-09-19T13:41:49;1.70;;;0.93;;
28245;SDS011;15510;52.512;13.300;2023-09-19T13:44:15;3.45;;;1.23;;
28245;SDS011;15510;52.512;13.300;2023-09-19T13:46:42;2.28;;;1.05;;
28245;SDS011;15510;52.512;13.300;2023-09-19T13:49:10;2.55;;;0.88;;
28245;SDS011;15510;52.512;13.300;2023-09-19T13:51:36;5.40;;;1.35;;
28245;SDS011;15510;52.512;13.300;2023-09-19T13:54:02;4.18;;;0.98;;
28245;SDS011;15510;52.512;13.300;2023-09-19T13:56:28;5.07;;;1.27;;
28245;SDS011;15510;52.512;13.300;2023-09-19T13:58:56;3.40;;;1.00;;
28245;SDS011;15510;52.512;13.300;2023-09-19T14:01:24;2.85;;;1.15;;
28245;SDS011;15510;52.512;13.300;2023-09-19T14:03:54;3.50;;;1.10;;
28245;SDS011;15510;52.512;13.300;2023-09-19T14:06:22;4.22;;;1.10;;
28245;SDS011;15510;52.512;13.300;2023-09-19T14:08:48;2.08;;;0.80;;
28245;SDS011;15510;52.512;13.300;2023-09-19T14:11:15;1.75;;;1.00;;
28245;SDS011;15510;52.512;13.300;2023-09-19T14:13:41;4.32;;;1.38;;
28245;SDS011;15510;52.512;13.300;2023-09-19T14:16:12;2.67;;;0.80;;
28245;SDS011;15510;52.512;13.300;2023-09-19T14:18:40;2.35;;;1.05;;
28245;SDS011;15510;52.512;13.300;2023-09-19T14:21:07;3.80;;;0.85;;
28245;SDS011;15510;52.512;13.300;2023-09-19T14:23:36;2.53;;;0.80;;
28245;SDS011;15510;52.512;13.300;2023-09-19T14:26:03;3.03;;;0.90;;
28245;SDS011;15510;52.512;13.300;2023-09-19T14:28:32;2.17;;;0.80;;
28245;SDS011;15510;52.512;13.300;2023-09-19T14:31:08;2.83;;;0.88;;
28245;SDS011;15510;52.512;13.300;2023-09-19T14:33:34;1.67;;;0.82;;
28245;SDS011;15510;52.512;13.300;2023-09-19T14:36:09;3.13;;;1.13;;
28245;SDS011;15510;52.512;13.300;2023-09-19T14:38:36;2.55;;;1.40;;
28245;SDS011;15510;52.512;13.300;2023-09-19T14:41:03;1.85;;;1.02;;
28245;SDS011;15510;52.512;13.300;2023-09-19T14:43:30;3.70;;;1.15;;
28245;SDS011;15510;52.512;13.300;2023-09-19T14:46:02;1.98;;;0.90;;
28245;SDS011;15510;52.512;13.300;2023-09-19T14:48:28;4.25;;;0.98;;
28245;SDS011;15510;52.512;13.300;2023-09-19T14:50:54;4.53;;;1.08;;
28245;SDS011;15510;52.512;13.300;2023-09-19T14:53:20;1.08;;;0.90;;
28245;SDS011;15510;52.512;13.300;2023-09-19T14:55:46;2.03;;;0.88;;
28245;SDS011;15510;52.512;13.300;2023-09-19T14:58:20;2.72;;;1.17;;
28245;SDS011;15510;52.512;13.300;2023-09-19T15:00:46;4.13;;;1.83;;
28245;SDS011;15510;52.512;13.300;2023-09-19T15:03:12;4.32;;;2.55;;
28245;SDS011;15510;52.512;13.300;2023-09-19T15:05:39;6.88;;;3.00;;
28245;SDS011;15510;52.512;13.300;2023-09-19T15:08:04;3.95;;;2.78;;
28245;SDS011;15510;52.512;13.300;2023-09-19T15:10:33;4.57;;;1.77;;
28245;SDS011;15510;52.512;13.300;2023-09-19T15:12:59;3.55;;;1.85;;
28245;SDS011;15510;52.512;13.300;2023-09-19T15:15:26;3.08;;;1.60;;
28245;SDS011;15510;52.512;13.300;2023-09-19T15:17:56;5.72;;;2.83;;
28245;SDS011;15510;52.512;13.300;2023-09-19T15:20:23;3.65;;;1.25;;
28245;SDS011;15510;52.512;13.300;2023-09-19T15:22:49;4.00;;;1.23;;
28245;SDS011;15510;52.512;13.300;2023-09-19T15:25:16;4.00;;;1.77;;
28245;SDS011;15510;52.512;13.300;2023-09-19T15:27:42;4.78;;;1.95;;
28245;SDS011;15510;52.512;13.300;2023-09-19T15:30:13;6.07;;;1.50;;
28245;SDS011;15510;52.512;13.300;2023-09-19T15:32:40;4.05;;;2.00;;
28245;SDS011;15510;52.512;13.300;2023-09-19T15:35:06;5.25;;;1.65;;